createdAt,value
2022-12-17T00:01:52.097Z,30.98
2022-12-17T00:04:37.875Z,28.88
2022-12-17T00:07:23.670Z,28.33
2022-12-17T00:10:08.957Z,36.30
2022-12-17T00:12:56.455Z,38.58
2022-12-17T00:15:43.638Z,36.25
2022-12-17T00:18:29.280Z,36.00
2022-12-17T00:21:16.762Z,32.03
2022-12-17T00:24:03.369Z,28.67
2022-12-17T00:26:49.349Z,31.25
2022-12-17T00:29:35.334Z,30.38
2022-12-17T00:32:23.359Z,30.08
2022-12-17T00:35:08.923Z,25.25
2022-12-17T00:37:56.945Z,27.25
2022-12-17T00:40:42.817Z,30.20
2022-12-17T00:43:32.904Z,27.42
2022-12-17T00:46:19.043Z,27.05
2022-12-17T00:49:06.228Z,23.33
2022-12-17T00:51:51.524Z,26.92
2022-12-17T00:54:36.159Z,21.95
2022-12-17T00:57:21.620Z,28.80
2022-12-17T01:00:07.104Z,23.65
2022-12-17T01:02:53.076Z,21.55
2022-12-17T01:05:40.580Z,24.80
2022-12-17T01:08:31.675Z,28.40
2022-12-17T01:11:18.514Z,20.30
2022-12-17T01:14:04.283Z,24.13
2022-12-17T01:16:49.802Z,22.83
2022-12-17T01:19:35.850Z,26.67
2022-12-17T01:22:22.800Z,30.27
2022-12-17T01:25:08.505Z,25.70
2022-12-17T01:27:55.331Z,28.85
2022-12-17T01:30:42.337Z,29.05
2022-12-17T01:33:29.475Z,33.13
2022-12-17T01:36:15.160Z,34.95
2022-12-17T01:39:02.256Z,32.30
2022-12-17T01:41:48.423Z,33.22
2022-12-17T01:45:05.995Z,31.77
2022-12-17T01:47:56.419Z,30.38
2022-12-17T01:50:45.229Z,28.48
2022-12-17T01:53:31.347Z,28.42
2022-12-17T01:56:18.792Z,29.55
2022-12-17T01:59:05.270Z,32.97
2022-12-17T02:01:51.313Z,29.10
2022-12-17T02:04:52.299Z,33.63
2022-12-17T02:07:53.101Z,31.40
2022-12-17T02:10:51.942Z,32.35
2022-12-17T02:13:42.299Z,28.15
2022-12-17T02:16:35.250Z,29.08
2022-12-17T02:19:30.465Z,30.33
2022-12-17T02:22:19.970Z,31.50
2022-12-17T02:25:14.180Z,23.55
2022-12-17T02:28:02.476Z,28.98
2022-12-17T02:30:50.278Z,26.58
2022-12-17T02:33:36.819Z,35.03
2022-12-17T02:36:25.027Z,31.70
2022-12-17T02:39:10.358Z,33.55
2022-12-17T02:42:01.136Z,27.70
2022-12-17T02:44:49.008Z,31.05
2022-12-17T02:47:35.852Z,29.13
2022-12-17T02:50:21.588Z,25.92
2022-12-17T02:53:08.884Z,29.55
2022-12-17T02:55:55.863Z,32.72
2022-12-17T02:58:41.413Z,29.45
2022-12-17T03:01:28.780Z,25.95
2022-12-17T03:04:14.491Z,30.83
2022-12-17T03:07:00.181Z,29.15
2022-12-17T03:09:45.663Z,26.63
2022-12-17T03:12:31.064Z,29.15
2022-12-17T03:15:16.777Z,29.60
2022-12-17T03:18:03.559Z,30.23
2022-12-17T03:20:49.011Z,32.33
2022-12-17T03:23:34.712Z,31.52
2022-12-17T03:26:21.804Z,29.05
2022-12-17T03:29:07.451Z,28.65
2022-12-17T03:31:53.263Z,31.35
2022-12-17T03:34:40.223Z,29.50
2022-12-17T03:37:25.721Z,26.98
2022-12-17T03:40:11.410Z,29.30
2022-12-17T03:42:56.866Z,30.45
2022-12-17T03:45:42.601Z,28.67
2022-12-17T03:48:30.249Z,25.80
2022-12-17T03:51:17.727Z,33.75
2022-12-17T03:54:04.041Z,33.13
2022-12-17T03:56:55.658Z,31.42
2022-12-17T03:59:41.144Z,31.60
2022-12-17T04:02:26.918Z,36.83
2022-12-17T04:05:18.223Z,36.33
2022-12-17T04:08:07.139Z,32.60
2022-12-17T04:10:53.064Z,34.88
2022-12-17T04:13:41.300Z,29.35
2022-12-17T04:16:27.343Z,32.47
2022-12-17T04:19:13.189Z,36.45
2022-12-17T04:21:58.619Z,39.90
2022-12-17T04:24:56.871Z,37.05
2022-12-17T04:27:42.580Z,30.70
2022-12-17T04:30:29.317Z,41.17
2022-12-17T04:33:14.978Z,39.17
2022-12-17T04:36:00.750Z,37.28
2022-12-17T04:38:46.424Z,42.97
2022-12-17T04:41:33.313Z,43.35
2022-12-17T04:44:18.746Z,44.95
2022-12-17T04:47:04.643Z,36.55
2022-12-17T04:49:50.043Z,41.90
2022-12-17T04:52:36.012Z,48.95
2022-12-17T04:55:21.790Z,48.58
2022-12-17T04:58:08.842Z,44.13
2022-12-17T05:00:54.292Z,49.42
2022-12-17T05:03:40.466Z,43.97
2022-12-17T05:06:27.426Z,45.60
2022-12-17T05:09:13.216Z,44.10
2022-12-17T05:11:58.822Z,41.15
2022-12-17T05:14:45.833Z,56.63
2022-12-17T05:17:31.246Z,43.17
2022-12-17T05:20:16.697Z,40.47
2022-12-17T05:23:02.302Z,38.67
2022-12-17T05:25:47.947Z,46.60
2022-12-17T05:28:38.929Z,43.75
2022-12-17T05:31:26.074Z,48.42
2022-12-17T05:34:11.907Z,45.22
2022-12-17T05:36:57.476Z,42.67
2022-12-17T05:39:43.259Z,43.92
2022-12-17T05:42:30.848Z,37.22
2022-12-17T05:45:16.222Z,33.35
2022-12-17T05:48:03.239Z,36.08
2022-12-17T05:50:49.376Z,42.63
2022-12-17T05:53:35.442Z,31.23
2022-12-17T05:56:21.179Z,29.60
2022-12-17T05:59:06.845Z,53.08
2022-12-17T06:01:52.489Z,35.60
2022-12-17T06:04:39.752Z,31.50
2022-12-17T06:07:25.021Z,31.90
2022-12-17T06:10:10.383Z,34.88
2022-12-17T06:12:55.759Z,34.70
2022-12-17T06:15:42.441Z,35.15
2022-12-17T06:18:28.264Z,30.67
2022-12-17T06:21:15.053Z,44.42
2022-12-17T06:24:01.030Z,36.83
2022-12-17T06:26:46.941Z,35.70
2022-12-17T06:29:32.323Z,31.80
2022-12-17T06:32:32.921Z,34.47
2022-12-17T06:35:18.817Z,34.13
2022-12-17T06:38:05.973Z,69.10
2022-12-17T06:40:51.675Z,34.85
2022-12-17T06:43:38.054Z,50.50
2022-12-17T06:46:24.235Z,37.00
2022-12-17T06:49:10.095Z,32.03
2022-12-17T06:51:56.129Z,32.60
2022-12-17T06:54:43.206Z,35.17
2022-12-17T06:57:28.684Z,35.63
2022-12-17T07:00:14.100Z,33.35
2022-12-17T07:03:00.045Z,33.85
2022-12-17T07:05:46.040Z,40.60
2022-12-17T07:08:31.622Z,38.50
2022-12-17T07:11:19.891Z,32.97
2022-12-17T07:14:05.545Z,34.63
2022-12-17T07:16:51.059Z,29.88
2022-12-17T07:19:36.699Z,29.55
2022-12-17T07:22:22.318Z,34.30
2022-12-17T07:25:07.924Z,36.25
2022-12-17T07:27:54.739Z,32.58
2022-12-17T07:30:40.371Z,29.75
2022-12-17T07:33:28.876Z,32.15
2022-12-17T07:36:14.960Z,33.35
2022-12-17T07:39:00.749Z,28.17
2022-12-17T07:41:46.338Z,28.35
2022-12-17T07:44:33.408Z,30.60
2022-12-17T07:47:19.167Z,28.63
2022-12-17T07:50:04.860Z,40.95
2022-12-17T07:52:50.342Z,26.08
2022-12-17T07:55:36.317Z,31.00
2022-12-17T07:58:24.968Z,28.98
2022-12-17T08:01:12.062Z,33.38
2022-12-17T08:03:57.972Z,28.42
2022-12-17T08:06:43.436Z,31.20
2022-12-17T08:09:28.954Z,29.20
2022-12-17T08:12:14.409Z,32.45
2022-12-17T08:15:00.165Z,24.73
2022-12-17T08:17:47.070Z,34.53
2022-12-17T08:20:33.104Z,32.58
2022-12-17T08:23:22.883Z,34.00
2022-12-17T08:26:08.671Z,28.55
2022-12-17T08:28:54.568Z,32.53
2022-12-17T08:31:42.383Z,32.03
2022-12-17T08:34:29.417Z,38.30
2022-12-17T08:37:15.181Z,29.05
2022-12-17T08:40:01.007Z,33.38
2022-12-17T08:42:46.843Z,31.42
2022-12-17T08:45:32.634Z,31.02
2022-12-17T08:48:30.800Z,36.00
2022-12-17T08:51:17.690Z,30.17
2022-12-17T08:54:03.300Z,24.20
2022-12-17T08:56:48.586Z,28.67
2022-12-17T08:59:34.057Z,29.92
2022-12-17T09:02:19.793Z,35.63
2022-12-17T09:05:05.401Z,30.55
2022-12-17T09:07:52.480Z,32.00
2022-12-17T09:10:38.169Z,27.70
2022-12-17T09:13:23.807Z,33.10
2022-12-17T09:16:12.771Z,37.50
2022-12-17T09:19:00.495Z,29.67
2022-12-17T09:21:47.152Z,34.03
2022-12-17T09:24:34.560Z,30.45
2022-12-17T09:27:19.400Z,31.10
2022-12-17T09:30:04.877Z,23.85
2022-12-17T09:32:50.599Z,25.58
2022-12-17T09:35:36.360Z,27.23
2022-12-17T09:38:22.093Z,26.83
2022-12-17T09:41:15.338Z,22.55
2022-12-17T09:44:05.804Z,24.15
2022-12-17T09:46:57.035Z,26.33
2022-12-17T09:49:45.388Z,25.17
2022-12-17T09:52:38.802Z,22.35
2022-12-17T09:58:16.378Z,26.00
2022-12-17T10:01:01.329Z,29.70
2022-12-17T10:03:49.030Z,33.08
2022-12-17T10:06:38.159Z,25.67
2022-12-17T10:09:31.683Z,27.05
2022-12-17T10:12:21.756Z,31.13
2022-12-17T10:15:08.660Z,28.80
2022-12-17T10:17:54.495Z,28.33
2022-12-17T10:20:46.956Z,32.33
2022-12-17T10:23:42.120Z,43.63
2022-12-17T10:26:27.903Z,31.08
2022-12-17T10:29:22.579Z,27.95
2022-12-17T10:32:10.053Z,31.27
2022-12-17T10:35:01.859Z,29.15
2022-12-17T10:37:53.064Z,29.33
2022-12-17T10:40:44.406Z,26.13
2022-12-17T10:43:50.649Z,29.02
2022-12-17T10:46:44.842Z,26.67
2022-12-17T10:49:34.591Z,30.17
2022-12-17T10:52:23.346Z,33.75
2022-12-17T10:55:21.062Z,28.13
2022-12-17T10:58:10.760Z,29.95
2022-12-17T11:01:09.905Z,28.60
2022-12-17T11:04:09.510Z,28.67
2022-12-17T11:07:00.038Z,31.15
2022-12-17T11:10:06.996Z,32.25
2022-12-17T11:12:58.824Z,30.92
2022-12-17T11:15:50.839Z,30.15
2022-12-17T11:18:41.492Z,37.03
2022-12-17T11:21:31.908Z,37.33
2022-12-17T11:24:22.699Z,30.95
2022-12-17T11:27:12.243Z,33.40
2022-12-17T11:29:58.902Z,37.28
2022-12-17T11:33:05.226Z,37.40
2022-12-17T11:36:00.308Z,45.78
2022-12-17T11:38:54.661Z,37.72
2022-12-17T11:42:08.063Z,36.72
2022-12-17T11:45:08.847Z,44.08
2022-12-17T11:48:08.005Z,37.17
2022-12-17T11:51:02.614Z,61.55
2022-12-17T11:54:05.994Z,39.20
2022-12-17T11:57:07.079Z,44.72
2022-12-17T11:59:58.278Z,40.53
2022-12-17T12:03:01.164Z,42.35
2022-12-17T12:05:57.033Z,40.00
2022-12-17T12:08:46.237Z,44.83
2022-12-17T12:11:42.747Z,41.50
2022-12-17T12:14:40.825Z,59.22
2022-12-17T12:17:42.006Z,41.83
2022-12-17T12:20:39.888Z,51.83
2022-12-17T12:23:35.504Z,55.00
2022-12-17T12:26:29.845Z,46.83
2022-12-17T12:29:26.717Z,42.75
2022-12-17T12:32:27.648Z,38.45
2022-12-17T12:35:15.290Z,38.38
2022-12-17T12:38:01.181Z,35.08
2022-12-17T12:40:53.919Z,35.08
2022-12-17T12:43:41.729Z,36.20
2022-12-17T12:46:34.779Z,33.60
2022-12-17T12:49:27.025Z,33.53
2022-12-17T12:52:14.475Z,34.83
2022-12-17T12:55:11.470Z,39.90
2022-12-17T12:57:59.797Z,37.63
2022-12-17T13:00:54.223Z,36.22
2022-12-17T13:03:46.465Z,39.83
2022-12-17T13:06:37.423Z,36.97
2022-12-17T13:09:07.315Z,38.83
2022-12-17T13:11:39.245Z,38.70
2022-12-17T13:14:14.953Z,37.40
2022-12-17T13:16:53.085Z,35.28
2022-12-17T13:19:33.642Z,42.88
2022-12-17T13:22:27.911Z,38.10
2022-12-17T13:25:10.150Z,36.13
2022-12-17T13:27:41.817Z,36.58
2022-12-17T13:30:24.289Z,36.88
2022-12-17T13:33:09.825Z,37.40
2022-12-17T13:35:44.413Z,36.83
2022-12-17T13:38:22.423Z,39.90
2022-12-17T13:41:13.120Z,32.60
2022-12-17T13:43:45.680Z,43.72
2022-12-17T13:46:23.015Z,39.80
2022-12-17T13:48:56.436Z,42.75
2022-12-17T13:51:26.891Z,33.65
2022-12-17T13:53:58.949Z,47.42
2022-12-17T13:56:30.006Z,40.57
2022-12-17T13:59:07.985Z,38.97
2022-12-17T14:01:46.935Z,47.00
2022-12-17T14:04:28.588Z,39.38
2022-12-17T14:06:59.959Z,54.17
2022-12-17T14:09:34.852Z,49.63
2022-12-17T14:12:24.019Z,44.85
2022-12-17T14:14:56.170Z,45.85
2022-12-17T14:17:26.156Z,54.13
2022-12-17T14:20:00.030Z,52.45
2022-12-17T14:22:33.882Z,44.33
2022-12-17T14:25:04.460Z,59.63
2022-12-17T14:27:34.735Z,46.72
2022-12-17T14:30:04.314Z,48.72
2022-12-17T14:32:35.867Z,52.17
2022-12-17T14:35:05.099Z,60.58
2022-12-17T14:37:33.705Z,57.25
2022-12-17T14:40:06.463Z,50.72
2022-12-17T14:42:38.309Z,57.22
2022-12-17T14:45:21.607Z,46.88
2022-12-17T14:47:55.411Z,60.60
2022-12-17T14:50:30.477Z,55.53
2022-12-17T14:53:00.696Z,85.20
2022-12-17T14:55:36.139Z,61.60
2022-12-17T14:58:25.430Z,66.95
2022-12-17T15:00:56.957Z,47.60
2022-12-17T15:03:28.743Z,54.60
2022-12-17T15:05:59.972Z,100.88
2022-12-17T15:08:31.105Z,88.15
2022-12-17T15:11:00.742Z,74.65
2022-12-17T15:13:29.052Z,46.67
2022-12-17T15:15:57.444Z,117.65
2022-12-17T15:18:25.946Z,79.43
2022-12-17T15:20:54.201Z,75.63
2022-12-17T15:23:24.536Z,99.72
2022-12-17T15:25:54.939Z,69.05
2022-12-17T15:28:25.275Z,77.20
2022-12-17T15:30:53.561Z,72.72
2022-12-17T15:33:22.117Z,71.43
2022-12-17T15:35:50.323Z,46.72
2022-12-17T15:38:18.518Z,63.17
2022-12-17T15:40:46.714Z,63.78
2022-12-17T15:43:14.008Z,68.32
2022-12-17T15:45:45.615Z,74.43
2022-12-17T15:48:16.563Z,100.50
2022-12-17T15:50:44.892Z,122.00
2022-12-17T15:53:13.320Z,81.80
2022-12-17T15:55:42.033Z,94.30
2022-12-17T15:58:11.682Z,65.40
2022-12-17T16:00:40.330Z,87.38
2022-12-17T16:03:12.763Z,122.13
2022-12-17T16:05:41.102Z,114.30
2022-12-17T16:08:09.328Z,103.95
2022-12-17T16:10:38.347Z,125.53
2022-12-17T16:13:06.742Z,78.10
2022-12-17T16:15:34.968Z,121.05
2022-12-17T16:18:03.209Z,132.10
2022-12-17T16:20:32.805Z,125.93
2022-12-17T16:23:01.587Z,88.25
2022-12-17T16:25:30.061Z,169.20
2022-12-17T16:27:58.324Z,116.15
2022-12-17T16:30:26.477Z,83.43
2022-12-17T16:32:54.668Z,111.65
2022-12-17T16:35:23.970Z,118.88
2022-12-17T16:37:53.536Z,90.82
2022-12-17T16:40:22.034Z,122.25
2022-12-17T16:42:50.308Z,101.35
2022-12-17T16:45:18.638Z,71.97
2022-12-17T16:47:46.836Z,81.93
2022-12-17T16:50:16.862Z,55.45
2022-12-17T16:52:45.074Z,52.92
2022-12-17T16:55:14.632Z,52.45
2022-12-17T16:57:42.786Z,52.00
2022-12-17T17:00:12.381Z,72.07
2022-12-17T17:02:40.690Z,56.22
2022-12-17T17:05:10.569Z,219.40
2022-12-17T17:07:38.725Z,89.15
2022-12-17T17:10:07.844Z,57.50
2022-12-17T17:12:37.461Z,58.90
2022-12-17T17:15:06.431Z,48.45
2022-12-17T17:17:55.677Z,53.08
2022-12-17T17:20:22.920Z,81.68
2022-12-17T17:22:51.158Z,57.30
2022-12-17T17:25:19.517Z,64.43
2022-12-17T17:27:49.121Z,72.90
2022-12-17T17:30:17.441Z,51.33
2022-12-17T17:32:45.799Z,65.53
2022-12-17T17:35:14.051Z,96.00
2022-12-17T17:37:42.223Z,108.50
2022-12-17T17:40:11.999Z,104.40
2022-12-17T17:42:40.521Z,79.65
2022-12-17T17:45:11.105Z,115.85
2022-12-17T17:47:39.259Z,90.35
2022-12-17T17:50:08.051Z,75.65
2022-12-17T17:52:36.250Z,94.53
2022-12-17T17:55:04.835Z,71.38
2022-12-17T17:57:33.565Z,54.75
2022-12-17T18:00:02.900Z,54.92
2022-12-17T18:02:32.718Z,76.20
2022-12-17T18:05:01.127Z,58.60
2022-12-17T18:07:29.439Z,67.63
2022-12-17T18:09:59.691Z,76.10
2022-12-17T18:12:48.500Z,51.95
2022-12-17T18:15:18.124Z,75.28
2022-12-17T18:17:51.158Z,74.68
2022-12-17T18:20:20.037Z,70.80
2022-12-17T18:22:48.257Z,59.67
2022-12-17T18:25:17.715Z,84.93
2022-12-17T18:27:46.187Z,101.35
2022-12-17T18:30:16.301Z,64.30
2022-12-17T18:32:44.688Z,102.65
2022-12-17T18:35:14.278Z,59.47
2022-12-17T18:37:42.492Z,174.57
2022-12-17T18:40:11.767Z,115.88
2022-12-17T18:42:57.185Z,94.93
2022-12-17T18:45:25.418Z,113.03
2022-12-17T18:47:53.635Z,86.00
2022-12-17T18:50:23.206Z,103.55
2022-12-17T18:52:51.393Z,168.73
2022-12-17T18:55:19.704Z,119.47
2022-12-17T18:57:47.969Z,68.55
2022-12-17T19:00:16.584Z,97.15
2022-12-17T19:02:46.604Z,77.88
2022-12-17T19:05:15.023Z,76.65
2022-12-17T19:07:44.971Z,72.28
2022-12-17T19:10:13.192Z,61.10
2022-12-17T19:12:41.431Z,87.03
2022-12-17T19:15:10.644Z,133.02
2022-12-17T19:17:38.859Z,91.03
2022-12-17T19:20:08.038Z,99.43
2022-12-17T19:22:36.232Z,77.03
2022-12-17T19:25:06.388Z,60.47
2022-12-17T19:27:34.794Z,85.65
2022-12-17T19:30:02.979Z,93.25
2022-12-17T19:32:31.554Z,45.85
2022-12-17T19:35:00.156Z,76.45
2022-12-17T19:37:28.439Z,60.38
2022-12-17T19:39:58.056Z,60.35
2022-12-17T19:42:34.943Z,56.47
2022-12-17T19:45:05.562Z,72.40
2022-12-17T19:47:33.771Z,96.60
2022-12-17T19:50:01.955Z,68.47
2022-12-17T19:52:30.128Z,76.70
2022-12-17T19:54:58.333Z,70.75
2022-12-17T19:57:27.907Z,88.78
2022-12-17T19:59:56.080Z,69.22
2022-12-17T20:02:29.683Z,52.97
2022-12-17T20:05:00.635Z,61.58
2022-12-17T20:07:28.935Z,54.17
2022-12-17T20:09:57.158Z,53.22
2022-12-17T20:12:25.388Z,84.53
2022-12-17T20:14:54.926Z,71.03
2022-12-17T20:17:24.732Z,63.08
2022-12-17T20:19:53.844Z,62.47
2022-12-17T20:22:23.559Z,49.70
2022-12-17T20:24:53.200Z,53.30
2022-12-17T20:27:21.383Z,60.20
2022-12-17T20:29:49.852Z,45.40
2022-12-17T20:32:21.298Z,45.22
2022-12-17T20:34:49.660Z,45.70
2022-12-17T20:37:17.948Z,46.08
2022-12-17T20:39:46.141Z,49.67
2022-12-17T20:42:14.411Z,47.20
2022-12-17T20:44:43.040Z,51.50
2022-12-17T20:47:11.811Z,130.88
2022-12-17T20:49:41.372Z,103.07
2022-12-17T20:52:09.601Z,69.53
2022-12-17T20:54:38.060Z,66.07
2022-12-17T20:57:06.320Z,60.95
2022-12-17T20:59:34.735Z,56.40
2022-12-17T21:02:03.012Z,77.32
2022-12-17T21:04:31.280Z,76.15
2022-12-17T21:07:00.851Z,92.72
2022-12-17T21:09:29.089Z,79.68
2022-12-17T21:11:57.696Z,85.18
2022-12-17T21:14:30.460Z,75.10
2022-12-17T21:17:01.930Z,75.22
2022-12-17T21:19:34.399Z,92.50
2022-12-17T21:22:03.993Z,99.80
2022-12-17T21:24:32.181Z,122.93
2022-12-17T21:27:00.600Z,134.52
2022-12-17T21:29:29.540Z,109.00
2022-12-17T21:31:57.692Z,64.38
2022-12-17T21:34:29.210Z,134.57
2022-12-17T21:36:57.535Z,129.15
2022-12-17T21:39:27.118Z,149.05
2022-12-17T21:42:12.964Z,94.60
2022-12-17T21:44:41.174Z,103.53
2022-12-17T21:47:09.512Z,119.28
2022-12-17T21:49:37.676Z,127.15
2022-12-17T21:52:06.414Z,107.82
2022-12-17T21:54:37.282Z,135.20
2022-12-17T21:57:06.248Z,80.82
2022-12-17T21:59:34.438Z,82.30
2022-12-17T22:02:02.732Z,93.45
2022-12-17T22:04:31.117Z,77.05
2022-12-17T22:07:11.040Z,77.38
2022-12-17T22:10:16.084Z,81.88
2022-12-17T22:12:53.060Z,102.35
2022-12-17T22:15:21.282Z,78.00
2022-12-17T22:17:51.979Z,71.03
2022-12-17T22:20:20.509Z,76.85
2022-12-17T22:22:48.839Z,72.03
2022-12-17T22:25:18.845Z,68.88
2022-12-17T22:27:47.149Z,82.70
2022-12-17T22:30:34.934Z,83.78
2022-12-17T22:33:08.046Z,86.88
2022-12-17T22:37:53.236Z,72.93
2022-12-17T22:40:28.371Z,82.25
2022-12-17T22:44:36.593Z,57.55
2022-12-17T22:44:51.917Z,58.72
2022-12-17T22:47:21.983Z,66.95
2022-12-17T22:49:50.307Z,71.63
2022-12-17T22:52:20.180Z,67.88
2022-12-17T22:54:48.855Z,65.07
2022-12-17T22:57:34.925Z,73.07
2022-12-17T23:00:10.504Z,106.40
2022-12-17T23:02:38.803Z,90.45
2022-12-17T23:05:07.662Z,72.75
2022-12-17T23:07:36.094Z,69.57
2022-12-17T23:10:04.817Z,63.00
2022-12-17T23:12:52.510Z,68.75
2022-12-17T23:15:23.964Z,102.68
2022-12-17T23:17:53.758Z,68.35
2022-12-17T23:20:22.091Z,71.78
2022-12-17T23:22:50.251Z,62.58
2022-12-17T23:25:18.784Z,66.88
2022-12-17T23:27:49.005Z,67.60
2022-12-17T23:30:18.791Z,63.13
2022-12-17T23:32:47.711Z,60.78
2022-12-17T23:35:16.069Z,62.42
2022-12-17T23:37:44.276Z,62.60
2022-12-17T23:40:14.020Z,59.90
2022-12-17T23:42:42.720Z,52.17
2022-12-17T23:45:12.556Z,54.83
2022-12-17T23:47:41.068Z,40.38
2022-12-17T23:50:11.623Z,37.25
2022-12-17T23:52:40.441Z,35.80
2022-12-17T23:55:11.116Z,43.53
2022-12-17T23:57:39.336Z,46.42
